createdAt,value
2023-01-11T00:00:57.077Z,18.04
2023-01-11T00:05:59.333Z,18.07
2023-01-11T00:11:02.536Z,18.10
2023-01-11T00:16:08.339Z,18.05
2023-01-11T00:21:10.850Z,18.03
2023-01-11T00:26:13.586Z,18.01
2023-01-11T00:31:16.207Z,18.03
2023-01-11T00:36:18.157Z,18.03
2023-01-11T00:41:39.600Z,18.01
2023-01-11T00:47:00.010Z,18.03
2023-01-11T00:52:02.302Z,18.04
2023-01-11T00:57:04.785Z,18.03
2023-01-11T01:02:06.811Z,18.00
2023-01-11T01:07:09.014Z,18.05
2023-01-11T01:12:11.108Z,18.06
2023-01-11T01:17:13.049Z,18.01
2023-01-11T01:22:14.939Z,18.06
2023-01-11T01:27:18.084Z,18.04
2023-01-11T01:32:20.096Z,18.05
2023-01-11T01:37:21.914Z,18.05
2023-01-11T01:42:24.587Z,18.02
2023-01-11T01:47:32.615Z,18.05
2023-01-11T01:52:35.559Z,18.02
2023-01-11T01:57:41.101Z,18.05
2023-01-11T02:02:44.749Z,18.03
2023-01-11T02:07:47.498Z,18.04
2023-01-11T02:12:56.119Z,18.03
2023-01-11T02:17:57.999Z,18.05
2023-01-11T02:23:24.706Z,17.96
2023-01-11T02:28:41.839Z,17.98
2023-01-11T02:34:05.364Z,17.99
2023-01-11T02:39:34.075Z,17.99
2023-01-11T02:45:02.420Z,18.06
2023-01-11T02:50:13.976Z,18.04
2023-01-11T02:55:19.900Z,18.05
2023-01-11T03:00:22.977Z,18.06
2023-01-11T03:05:24.698Z,18.02
2023-01-11T03:10:50.230Z,18.05
2023-01-11T03:16:11.162Z,18.04
2023-01-11T03:21:57.361Z,18.04
2023-01-11T03:27:12.299Z,18.02
2023-01-11T03:32:45.815Z,18.02
2023-01-11T03:38:13.216Z,18.02
2023-01-11T03:43:19.670Z,18.00
2023-01-11T03:48:31.025Z,18.01
2023-01-11T03:53:37.131Z,18.04
2023-01-11T03:58:39.197Z,18.00
2023-01-11T04:03:41.001Z,18.03
2023-01-11T04:08:42.899Z,18.01
2023-01-11T04:13:44.903Z,18.07
2023-01-11T04:18:46.784Z,18.03
2023-01-11T04:23:49.156Z,18.06
2023-01-11T04:28:54.021Z,18.01
2023-01-11T04:33:56.143Z,18.06
2023-01-11T04:38:58.774Z,18.05
2023-01-11T04:44:00.597Z,18.03
2023-01-11T04:49:03.015Z,18.03
2023-01-11T04:54:04.987Z,18.05
2023-01-11T04:59:06.923Z,18.07
2023-01-11T05:04:08.867Z,18.03
2023-01-11T05:09:17.999Z,18.03
2023-01-11T05:14:19.947Z,18.07
2023-01-11T05:19:21.886Z,18.07
2023-01-11T05:24:23.784Z,18.06
2023-01-11T05:29:25.654Z,18.05
2023-01-11T05:34:27.556Z,18.10
2023-01-11T05:39:29.727Z,18.05
2023-01-11T05:44:50.279Z,18.06
2023-01-11T05:49:52.184Z,18.06
2023-01-11T05:54:54.157Z,18.08
2023-01-11T05:59:56.584Z,18.03
2023-01-11T06:04:58.511Z,18.05
2023-01-11T06:10:00.419Z,18.09
2023-01-11T06:15:02.326Z,18.07
2023-01-11T06:20:04.610Z,18.06
2023-01-11T06:25:06.808Z,18.10
2023-01-11T06:30:09.445Z,18.06
2023-01-11T06:35:11.313Z,18.06
2023-01-11T06:40:13.627Z,18.10
2023-01-11T06:45:15.635Z,18.05
2023-01-11T06:50:17.657Z,18.07
2023-01-11T06:55:19.843Z,18.08
2023-01-11T07:00:22.179Z,18.05
2023-01-11T07:05:24.430Z,18.04
2023-01-11T07:10:26.466Z,18.08
2023-01-11T07:15:28.848Z,18.09
2023-01-11T07:20:31.217Z,18.09
2023-01-11T07:25:33.368Z,18.07
2023-01-11T07:30:55.420Z,18.07
2023-01-11T07:36:00.918Z,18.10
2023-01-11T07:41:22.893Z,18.18
2023-01-11T07:46:24.899Z,18.10
2023-01-11T07:51:26.842Z,18.09
2023-01-11T07:56:29.631Z,18.12
2023-01-11T08:01:31.600Z,18.10
2023-01-11T08:06:33.590Z,18.11
2023-01-11T08:11:54.232Z,18.04
2023-01-11T08:16:56.207Z,18.00
2023-01-11T08:21:58.227Z,18.05
2023-01-11T08:27:00.482Z,18.06
2023-01-11T08:32:02.593Z,18.06
2023-01-11T08:37:05.680Z,18.02
2023-01-11T08:42:07.847Z,18.09
2023-01-11T08:47:09.695Z,18.12
2023-01-11T08:52:14.433Z,18.01
2023-01-11T08:57:16.483Z,18.06
2023-01-11T09:02:18.321Z,18.12
2023-01-11T09:07:20.176Z,18.13
2023-01-11T09:12:22.178Z,18.12
2023-01-11T09:17:23.997Z,18.11
2023-01-11T09:22:26.168Z,18.11
2023-01-11T09:27:28.455Z,18.11
2023-01-11T09:32:30.387Z,18.11
2023-01-11T09:37:32.365Z,18.18
2023-01-11T09:42:40.039Z,18.23
2023-01-11T09:48:17.594Z,18.14
2023-01-11T09:53:31.769Z,18.15
2023-01-11T09:59:33.656Z,18.12
2023-01-11T10:04:53.874Z,18.14
2023-01-11T10:18:22.775Z,18.17
2023-01-11T10:21:55.487Z,18.13
2023-01-11T10:27:00.183Z,18.14
2023-01-11T10:32:03.053Z,18.13
2023-01-11T10:37:51.613Z,18.16
2023-01-11T10:43:13.325Z,18.17
2023-01-11T10:48:24.631Z,18.12
2023-01-11T10:53:37.527Z,18.12
2023-01-11T10:59:04.261Z,18.16
2023-01-11T11:04:24.312Z,18.17
2023-01-11T11:09:32.440Z,18.16
2023-01-11T11:15:23.971Z,18.13
2023-01-11T11:20:31.728Z,18.16
2023-01-11T11:25:42.538Z,18.13
2023-01-11T11:30:47.651Z,18.15
2023-01-11T11:36:00.076Z,18.14
2023-01-11T11:41:09.430Z,18.13
2023-01-11T11:46:18.757Z,18.14
2023-01-11T11:51:23.253Z,18.16
2023-01-11T11:56:31.132Z,18.16
2023-01-11T12:01:36.047Z,18.16
2023-01-11T12:06:38.502Z,18.15
2023-01-11T12:11:42.419Z,18.15
2023-01-11T12:16:47.677Z,18.16
2023-01-11T12:21:51.156Z,18.12
2023-01-11T12:26:55.961Z,18.13
2023-01-11T12:32:26.261Z,18.11
2023-01-11T12:38:00.442Z,18.10
2023-01-11T12:43:11.558Z,18.00
2023-01-11T12:48:43.712Z,17.98
2023-01-11T12:54:27.589Z,17.91
2023-01-11T13:00:01.656Z,17.95
2023-01-11T13:05:23.795Z,18.02
2023-01-11T13:11:03.379Z,18.02
2023-01-11T13:16:18.113Z,18.04
2023-01-11T13:21:28.725Z,18.06
2023-01-11T13:26:50.655Z,18.08
2023-01-11T13:31:54.648Z,18.07
2023-01-11T13:37:02.908Z,18.08
2023-01-11T13:42:13.391Z,18.08
2023-01-11T13:47:37.058Z,18.10
2023-01-11T13:53:14.572Z,18.05
2023-01-11T13:58:29.326Z,18.12
2023-01-11T14:04:08.524Z,18.10
2023-01-11T14:09:10.583Z,18.12
2023-01-11T14:14:34.954Z,18.16
2023-01-11T14:19:48.042Z,18.16
2023-01-11T14:24:59.929Z,18.16
2023-01-11T14:30:25.692Z,18.21
2023-01-11T14:36:02.011Z,18.22
2023-01-11T14:41:46.799Z,18.27
2023-01-11T14:47:12.742Z,18.37
2023-01-11T14:52:34.591Z,18.37
2023-01-11T14:57:43.311Z,18.27
2023-01-11T15:03:05.027Z,18.26
2023-01-11T15:08:15.758Z,18.26
2023-01-11T15:13:26.074Z,18.27
2023-01-11T15:18:28.346Z,18.29
2023-01-11T15:23:38.533Z,18.27
2023-01-11T15:28:52.901Z,18.38
2023-01-11T15:33:55.914Z,18.47
2023-01-11T15:39:03.737Z,18.40
2023-01-11T15:44:16.489Z,18.47
2023-01-11T15:50:06.489Z,18.33
2023-01-11T15:55:17.737Z,18.32
2023-01-11T16:00:38.133Z,18.26
2023-01-11T16:05:51.047Z,18.28
2023-01-11T16:11:02.442Z,18.26
2023-01-11T16:16:29.511Z,18.20
2023-01-11T16:21:35.086Z,18.24
2023-01-11T16:26:41.277Z,18.24
2023-01-11T16:32:05.021Z,18.24
2023-01-11T16:37:40.283Z,18.25
2023-01-11T16:42:54.853Z,18.39
2023-01-11T16:48:08.203Z,18.43
2023-01-11T16:53:14.981Z,18.37
2023-01-11T16:58:19.488Z,18.43
2023-01-11T17:03:24.602Z,18.42
2023-01-11T17:08:36.933Z,18.56
2023-01-11T17:13:57.450Z,18.49
2023-01-11T17:19:07.031Z,18.47
2023-01-11T17:24:13.027Z,18.51
2023-01-11T17:29:33.089Z,18.26
2023-01-11T17:34:38.214Z,18.14
2023-01-11T17:39:49.342Z,18.18
2023-01-11T17:45:12.011Z,18.22
2023-01-11T17:50:39.767Z,18.36
2023-01-11T17:55:53.297Z,18.29
2023-01-11T18:01:20.643Z,18.36
2023-01-11T18:06:45.235Z,18.60
2023-01-11T18:11:47.526Z,18.55
2023-01-11T18:17:03.296Z,18.64
2023-01-11T18:22:27.896Z,18.47
2023-01-11T18:27:35.769Z,18.44
2023-01-11T18:32:41.999Z,18.40
2023-01-11T18:37:43.798Z,18.46
2023-01-11T18:42:53.450Z,18.47
2023-01-11T18:47:55.423Z,18.47
2023-01-11T18:52:58.271Z,18.48
2023-01-11T18:58:00.197Z,18.48
2023-01-11T19:03:03.832Z,17.92
2023-01-11T19:08:06.079Z,17.90
2023-01-11T19:13:08.104Z,17.75
2023-01-11T19:18:10.088Z,17.88
2023-01-11T19:23:12.441Z,17.83
2023-01-11T19:28:14.231Z,17.79
2023-01-11T19:33:16.072Z,17.75
2023-01-11T19:38:19.621Z,17.95
2023-01-11T19:43:21.616Z,17.92
2023-01-11T19:48:24.189Z,18.12
2023-01-11T19:53:26.156Z,17.97
2023-01-11T19:58:28.574Z,17.88
2023-01-11T20:03:30.548Z,17.92
2023-01-11T20:08:33.579Z,17.80
2023-01-11T20:13:35.734Z,17.84
2023-01-11T20:18:37.892Z,17.86
2023-01-11T20:23:39.779Z,18.03
2023-01-11T20:28:50.207Z,17.85
2023-01-11T20:33:53.148Z,18.01
2023-01-11T20:38:56.670Z,17.98
2023-01-11T20:43:59.363Z,18.22
2023-01-11T20:49:01.686Z,18.47
2023-01-11T20:54:05.181Z,18.76
2023-01-11T20:59:08.376Z,18.83
2023-01-11T21:04:11.975Z,18.58
2023-01-11T21:09:17.355Z,18.73
2023-01-11T21:14:19.719Z,18.78
2023-01-11T21:19:21.997Z,18.80
2023-01-11T21:24:23.997Z,18.70
2023-01-11T21:29:26.174Z,18.79
2023-01-11T21:34:28.823Z,18.73
2023-01-11T21:39:30.777Z,18.69
2023-01-11T21:44:34.405Z,18.70
2023-01-11T21:49:36.323Z,18.64
2023-01-11T21:54:38.437Z,18.68
2023-01-11T21:59:40.657Z,18.68
2023-01-11T22:04:42.637Z,18.64
2023-01-11T22:09:59.849Z,18.64
2023-01-11T22:15:06.397Z,18.51
2023-01-11T22:20:08.950Z,18.40
2023-01-11T22:25:10.869Z,18.45
2023-01-11T22:30:12.928Z,18.62
2023-01-11T22:35:14.829Z,18.77
2023-01-11T22:40:16.767Z,18.76
2023-01-11T22:45:18.653Z,18.73
2023-01-11T22:50:20.580Z,18.64
2023-01-11T22:55:23.055Z,18.60
2023-01-11T23:00:24.971Z,18.62
2023-01-11T23:05:27.474Z,18.60
2023-01-11T23:10:29.410Z,18.57
2023-01-11T23:15:31.395Z,18.59
2023-01-11T23:20:36.081Z,18.56
2023-01-11T23:25:37.834Z,18.56
2023-01-11T23:30:40.036Z,18.55
2023-01-11T23:35:42.017Z,18.59
2023-01-11T23:41:02.435Z,18.59
2023-01-11T23:46:24.852Z,18.58
2023-01-11T23:51:26.728Z,18.60
2023-01-11T23:56:29.213Z,18.55
